createdAt,value
2018-06-07T00:00:36.798Z,45.59
2018-06-07T00:03:03.918Z,44.78
2018-06-07T00:05:31.117Z,45.45
2018-06-07T00:07:58.192Z,45.66
2018-06-07T00:10:25.293Z,44.69
2018-06-07T00:12:52.381Z,44.87
2018-06-07T00:15:19.456Z,45.32
2018-06-07T00:17:46.552Z,45.70
2018-06-07T00:20:13.666Z,44.87
2018-06-07T00:22:40.746Z,44.56
2018-06-07T00:25:07.827Z,45.21
2018-06-07T00:27:34.912Z,44.73
2018-06-07T00:30:02.188Z,45.13
2018-06-07T00:32:29.460Z,45.51
2018-06-07T00:34:56.565Z,44.52
2018-06-07T00:37:23.694Z,44.47
2018-06-07T00:39:51.048Z,44.56
2018-06-07T00:42:18.137Z,44.83
2018-06-07T00:44:45.248Z,44.99
2018-06-07T00:47:12.331Z,45.14
2018-06-07T00:49:39.416Z,44.86
2018-06-07T00:52:06.515Z,44.66
2018-06-07T00:54:33.594Z,45.95
2018-06-07T00:57:07.225Z,45.69
2018-06-07T00:59:34.734Z,45.99
2018-06-07T01:02:01.828Z,45.55
2018-06-07T01:04:28.996Z,45.25
2018-06-07T01:06:56.103Z,45.40
2018-06-07T01:09:23.177Z,45.58
2018-06-07T01:11:50.281Z,45.47
2018-06-07T01:14:17.376Z,46.09
2018-06-07T01:16:44.581Z,45.79
2018-06-07T01:19:11.680Z,46.24
2018-06-07T01:21:38.829Z,46.73
2018-06-07T01:24:06.329Z,46.06
2018-06-07T01:26:33.405Z,46.93
2018-06-07T01:29:00.504Z,47.23
2018-06-07T01:31:47.189Z,47.65
2018-06-07T01:34:14.328Z,47.70
2018-06-07T01:36:41.461Z,47.10
2018-06-07T01:39:14.959Z,47.51
2018-06-07T01:41:42.109Z,47.70
2018-06-07T01:44:09.207Z,46.98
2018-06-07T01:46:36.357Z,47.41
2018-06-07T01:49:03.592Z,47.93
2018-06-07T01:51:30.689Z,47.59
2018-06-07T01:53:57.805Z,47.49
2018-06-07T01:56:24.936Z,48.75
2018-06-07T01:58:52.220Z,47.98
2018-06-07T02:01:19.380Z,48.61
2018-06-07T02:03:46.649Z,48.42
2018-06-07T02:06:13.743Z,48.61
2018-06-07T02:08:40.873Z,49.00
2018-06-07T02:11:08.072Z,49.17
2018-06-07T02:13:35.352Z,48.91
2018-06-07T02:16:02.561Z,48.76
2018-06-07T02:18:29.654Z,48.59
2018-06-07T02:20:56.762Z,49.59
2018-06-07T02:23:23.941Z,49.51
2018-06-07T02:25:51.140Z,49.44
2018-06-07T02:28:18.240Z,49.04
2018-06-07T02:30:45.435Z,49.43
2018-06-07T02:33:12.576Z,49.54
2018-06-07T02:35:39.762Z,49.99
2018-06-07T02:38:06.914Z,50.22
2018-06-07T02:40:34.004Z,50.17
2018-06-07T02:43:01.118Z,49.65
2018-06-07T02:45:28.370Z,50.36
2018-06-07T02:47:55.490Z,50.51
2018-06-07T02:50:22.592Z,51.11
2018-06-07T02:52:49.732Z,51.35
2018-06-07T02:55:16.922Z,51.40
2018-06-07T02:57:44.010Z,51.98
2018-06-07T03:00:11.136Z,52.03
2018-06-07T03:02:38.322Z,51.52
2018-06-07T03:05:05.449Z,52.71
2018-06-07T03:07:32.603Z,51.95
2018-06-07T03:09:59.693Z,52.01
2018-06-07T03:12:27.026Z,51.98
2018-06-07T03:14:54.146Z,52.69
2018-06-07T03:17:21.348Z,52.59
2018-06-07T03:19:48.458Z,52.36
2018-06-07T03:22:15.559Z,52.95
2018-06-07T03:24:42.673Z,52.26
2018-06-07T03:27:09.805Z,52.79
2018-06-07T03:29:36.889Z,52.71
2018-06-07T03:32:03.988Z,52.67
2018-06-07T03:34:31.084Z,52.48
2018-06-07T03:36:58.273Z,52.63
2018-06-07T03:39:25.444Z,52.70
2018-06-07T03:41:52.625Z,52.44
2018-06-07T03:44:19.741Z,53.03
2018-06-07T03:46:46.823Z,52.91
2018-06-07T03:49:13.944Z,52.68
2018-06-07T03:51:41.057Z,52.26
2018-06-07T03:54:08.151Z,51.90
2018-06-07T03:56:35.249Z,52.48
2018-06-07T03:59:02.465Z,53.01
2018-06-07T04:01:29.666Z,52.56
2018-06-07T04:03:57.331Z,52.42
2018-06-07T04:06:24.433Z,52.89
2018-06-07T04:08:52.075Z,52.23
2018-06-07T04:11:19.249Z,52.04
2018-06-07T04:13:46.336Z,52.44
2018-06-07T04:16:13.573Z,52.06
2018-06-07T04:18:40.676Z,52.57
2018-06-07T04:21:07.941Z,52.17
2018-06-07T04:23:35.067Z,53.68
2018-06-07T04:26:02.176Z,52.43
2018-06-07T04:28:29.260Z,52.12
2018-06-07T04:30:56.509Z,51.63
2018-06-07T04:33:23.697Z,51.17
2018-06-07T04:35:50.787Z,50.82
2018-06-07T04:38:17.895Z,50.89
2018-06-07T04:40:44.992Z,50.73
2018-06-07T04:43:12.116Z,51.35
2018-06-07T04:45:39.214Z,51.41
2018-06-07T04:48:06.619Z,51.18
2018-06-07T04:50:33.738Z,51.36
2018-06-07T04:53:00.829Z,51.40
2018-06-07T04:55:27.964Z,51.13
2018-06-07T04:57:55.193Z,50.63
2018-06-07T05:00:22.468Z,50.16
2018-06-07T05:02:49.568Z,50.90
2018-06-07T05:05:16.744Z,51.17
2018-06-07T05:07:43.869Z,50.36
2018-06-07T05:10:11.042Z,49.80
2018-06-07T05:12:38.154Z,50.76
2018-06-07T05:15:05.285Z,50.63
2018-06-07T05:17:32.483Z,50.78
2018-06-07T05:20:00.164Z,49.68
2018-06-07T05:22:27.478Z,49.60
2018-06-07T05:24:54.604Z,49.89
2018-06-07T05:27:21.805Z,49.61
2018-06-07T05:29:49.090Z,48.64
2018-06-07T05:32:16.185Z,49.22
2018-06-07T05:34:43.419Z,49.14
2018-06-07T05:37:10.549Z,49.04
2018-06-07T05:39:37.679Z,49.13
2018-06-07T05:42:05.608Z,49.36
2018-06-07T05:44:32.767Z,48.56
2018-06-07T05:47:00.018Z,48.02
2018-06-07T05:49:27.282Z,48.02
2018-06-07T05:51:54.410Z,48.52
2018-06-07T05:54:23.552Z,48.72
2018-06-07T05:56:51.121Z,47.42
2018-06-07T05:59:18.420Z,47.72
2018-06-07T06:01:45.521Z,48.29
2018-06-07T06:04:12.625Z,47.97
2018-06-07T06:06:39.717Z,48.06
2018-06-07T06:09:07.230Z,48.60
2018-06-07T06:11:34.341Z,48.12
2018-06-07T06:14:01.437Z,47.53
2018-06-07T06:16:28.533Z,47.32
2018-06-07T06:18:55.717Z,46.75
2018-06-07T06:21:22.966Z,46.92
2018-06-07T06:23:50.090Z,47.14
2018-06-07T06:26:17.157Z,47.40
2018-06-07T06:28:44.270Z,46.66
2018-06-07T06:31:11.498Z,46.45
2018-06-07T06:33:38.590Z,46.33
2018-06-07T06:36:06.267Z,46.73
2018-06-07T06:38:34.406Z,46.60
2018-06-07T06:41:01.565Z,46.55
2018-06-07T06:43:29.168Z,47.13
2018-06-07T06:45:56.309Z,47.01
2018-06-07T06:48:23.409Z,46.24
2018-06-07T06:50:50.512Z,45.90
2018-06-07T06:53:17.661Z,46.17
2018-06-07T06:55:44.757Z,49.89
2018-06-07T06:58:11.869Z,46.10
2018-06-07T07:00:39.044Z,47.59
2018-06-07T07:03:06.249Z,47.06
2018-06-07T07:05:33.444Z,47.23
2018-06-07T07:08:00.576Z,47.77
2018-06-07T07:10:27.681Z,48.46
2018-06-07T07:12:54.865Z,46.58
2018-06-07T07:15:22.341Z,44.89
2018-06-07T07:17:49.410Z,48.06
2018-06-07T07:20:16.595Z,46.18
2018-06-07T07:22:43.822Z,46.43
2018-06-07T07:25:11.013Z,45.24
2018-06-07T07:27:38.121Z,45.42
2018-06-07T07:30:05.382Z,45.81
2018-06-07T07:32:32.472Z,46.02
2018-06-07T07:34:59.686Z,44.02
2018-06-07T07:37:26.929Z,43.59
2018-06-07T07:39:59.314Z,44.20
2018-06-07T07:42:34.508Z,45.10
2018-06-07T07:45:09.089Z,43.89
2018-06-07T07:47:36.185Z,44.97
2018-06-07T07:50:03.373Z,44.94
2018-06-07T07:52:30.728Z,44.50
2018-06-07T07:54:57.828Z,43.88
2018-06-07T07:57:24.932Z,43.35
2018-06-07T07:59:52.290Z,42.48
2018-06-07T08:02:19.384Z,42.82
2018-06-07T08:04:46.573Z,42.06
2018-06-07T08:07:13.677Z,41.82
2018-06-07T08:09:40.852Z,42.08
2018-06-07T08:12:08.042Z,42.05
2018-06-07T08:14:35.526Z,41.51
2018-06-07T08:17:02.680Z,40.35
2018-06-07T08:19:30.200Z,41.80
2018-06-07T08:21:57.352Z,41.30
2018-06-07T08:24:24.442Z,40.95
2018-06-07T08:26:51.602Z,40.20
2018-06-07T08:29:18.724Z,40.79
2018-06-07T08:31:45.898Z,39.46
2018-06-07T08:34:13.100Z,40.56
2018-06-07T08:36:40.210Z,39.91
2018-06-07T08:39:07.784Z,39.02
2018-06-07T08:41:34.965Z,37.86
2018-06-07T08:44:02.158Z,38.32
2018-06-07T08:46:29.365Z,37.90
2018-06-07T08:48:56.494Z,37.22
2018-06-07T08:51:23.715Z,37.41
2018-06-07T08:53:50.964Z,38.46
2018-06-07T08:56:18.208Z,37.64
2018-06-07T08:58:45.296Z,36.85
2018-06-07T09:01:12.408Z,36.65
2018-06-07T09:03:39.603Z,36.08
2018-06-07T09:06:06.790Z,35.96
2018-06-07T09:08:33.882Z,35.92
2018-06-07T09:11:01.008Z,35.85
2018-06-07T09:13:28.108Z,34.97
2018-06-07T09:15:55.206Z,35.23
2018-06-07T09:18:22.410Z,34.55
2018-06-07T09:20:49.530Z,35.38
2018-06-07T09:23:16.728Z,35.16
2018-06-07T09:25:44.162Z,35.42
2018-06-07T09:28:11.260Z,34.14
2018-06-07T09:30:38.368Z,34.51
2018-06-07T09:33:06.597Z,34.14
2018-06-07T09:35:33.697Z,35.27
2018-06-07T09:38:00.805Z,35.55
2018-06-07T09:40:27.913Z,34.92
2018-06-07T09:42:55.153Z,34.17
2018-06-07T09:45:22.507Z,34.24
2018-06-07T09:47:49.636Z,34.54
2018-06-07T09:50:16.728Z,34.92
2018-06-07T09:52:43.863Z,33.86
2018-06-07T09:55:13.244Z,34.83
2018-06-07T09:57:41.437Z,35.30
2018-06-07T10:00:08.748Z,34.37
2018-06-07T10:02:35.943Z,34.64
2018-06-07T10:05:03.186Z,34.03
2018-06-07T10:07:30.315Z,34.04
2018-06-07T10:09:57.434Z,33.62
2018-06-07T10:12:24.703Z,34.76
2018-06-07T10:14:51.923Z,33.85
2018-06-07T10:17:19.026Z,33.81
2018-06-07T10:19:46.238Z,33.82
2018-06-07T10:22:13.477Z,33.71
2018-06-07T10:24:40.505Z,33.64
2018-06-07T10:27:07.556Z,34.14
2018-06-07T10:29:34.595Z,33.83
2018-06-07T10:32:01.626Z,34.04
2018-06-07T10:34:28.964Z,34.17
2018-06-07T10:36:56.008Z,33.27
2018-06-07T10:39:30.034Z,33.05
2018-06-07T10:41:57.086Z,33.46
2018-06-07T10:44:24.124Z,33.02
2018-06-07T10:46:51.133Z,32.16
2018-06-07T10:49:18.150Z,33.04
2018-06-07T10:51:45.246Z,32.79
2018-06-07T10:54:12.259Z,31.95
2018-06-07T10:56:39.300Z,32.77
2018-06-07T10:59:06.422Z,33.20
2018-06-07T11:01:33.445Z,31.89
2018-06-07T11:04:00.473Z,32.67
2018-06-07T11:06:27.602Z,33.08
2018-06-07T11:08:54.799Z,32.97
2018-06-07T11:11:21.977Z,31.91
2018-06-07T11:13:49.004Z,32.59
2018-06-07T11:16:16.018Z,33.80
2018-06-07T11:18:49.894Z,33.33
2018-06-07T11:21:16.951Z,32.35
2018-06-07T11:23:45.961Z,32.59
2018-06-07T11:26:11.197Z,33.41
2018-06-07T11:28:39.399Z,32.98
2018-06-07T11:31:06.810Z,32.97
2018-06-07T11:33:33.821Z,33.70
2018-06-07T11:36:01.010Z,33.24
2018-06-07T11:38:28.050Z,33.16
2018-06-07T11:40:55.191Z,32.71
2018-06-07T11:43:22.173Z,34.22
2018-06-07T11:45:49.291Z,34.10
2018-06-07T11:48:16.289Z,34.04
2018-06-07T11:50:43.390Z,33.40
2018-06-07T11:53:10.726Z,32.91
2018-06-07T11:55:37.818Z,33.07
2018-06-07T11:58:04.863Z,33.22
2018-06-07T12:00:31.882Z,33.85
2018-06-07T12:02:59.030Z,33.42
2018-06-07T12:05:26.074Z,34.02
2018-06-07T12:07:53.090Z,32.25
2018-06-07T12:10:20.135Z,32.54
2018-06-07T12:12:47.327Z,32.20
2018-06-07T12:15:14.450Z,32.42
2018-06-07T12:17:41.508Z,31.83
2018-06-07T12:20:08.531Z,31.18
2018-06-07T12:22:35.539Z,30.43
2018-06-07T12:25:02.630Z,30.35
2018-06-07T12:27:29.675Z,31.96
2018-06-07T12:29:56.721Z,30.92
2018-06-07T12:32:23.971Z,31.20
2018-06-07T12:34:51.072Z,31.40
2018-06-07T12:37:18.086Z,30.80
2018-06-07T12:39:45.146Z,29.44
2018-06-07T12:42:12.174Z,29.57
2018-06-07T12:44:39.276Z,28.43
2018-06-07T12:47:06.385Z,29.54
2018-06-07T12:49:33.342Z,28.97
2018-06-07T12:52:00.745Z,29.04
2018-06-07T12:54:27.861Z,27.99
2018-06-07T12:56:55.006Z,27.72
2018-06-07T12:59:22.119Z,27.81
2018-06-07T13:01:49.284Z,28.54
2018-06-07T13:04:16.409Z,27.15
2018-06-07T13:06:43.438Z,29.45
2018-06-07T13:09:10.565Z,29.91
2018-06-07T13:11:37.617Z,28.40
2018-06-07T13:14:04.650Z,26.72
2018-06-07T13:16:31.686Z,27.88
2018-06-07T13:18:59.110Z,28.39
2018-06-07T13:21:26.137Z,29.16
2018-06-07T13:23:53.165Z,26.91
2018-06-07T13:26:20.216Z,27.10
2018-06-07T13:28:47.307Z,27.46
2018-06-07T13:31:14.371Z,28.56
2018-06-07T13:33:41.406Z,26.82
2018-06-07T13:36:08.511Z,27.69
2018-06-07T13:38:35.554Z,27.05
2018-06-07T13:41:02.891Z,27.31
2018-06-07T13:43:30.011Z,25.95
2018-06-07T13:45:57.158Z,27.89
2018-06-07T13:48:24.500Z,27.28
2018-06-07T13:50:51.554Z,25.92
2018-06-07T13:53:18.646Z,27.28
2018-06-07T13:55:45.891Z,26.83
2018-06-07T13:58:12.923Z,26.28
2018-06-07T14:00:40.031Z,26.07
2018-06-07T14:03:07.065Z,25.87
2018-06-07T14:05:34.199Z,24.79
2018-06-07T14:08:01.354Z,24.21
2018-06-07T14:10:28.398Z,24.68
2018-06-07T14:12:55.437Z,24.30
2018-06-07T14:15:22.475Z,24.92
2018-06-07T14:17:49.491Z,25.94
2018-06-07T14:20:16.525Z,25.05
2018-06-07T14:22:43.634Z,25.24
2018-06-07T14:25:10.765Z,24.85
2018-06-07T14:27:37.933Z,25.69
2018-06-07T14:30:04.966Z,25.94
2018-06-07T14:32:32.085Z,24.74
2018-06-07T14:34:59.158Z,24.34
2018-06-07T14:37:26.258Z,23.87
2018-06-07T14:39:53.285Z,24.21
2018-06-07T14:42:20.366Z,23.81
2018-06-07T14:44:47.375Z,23.05
2018-06-07T14:47:14.425Z,22.76
2018-06-07T14:49:41.572Z,23.17
2018-06-07T14:52:08.592Z,23.36
2018-06-07T14:54:35.703Z,23.58
2018-06-07T14:57:02.854Z,23.31
2018-06-07T14:59:29.969Z,23.72
2018-06-07T15:01:57.002Z,24.18
2018-06-07T15:04:24.246Z,22.97
2018-06-07T15:06:51.327Z,25.58
2018-06-07T15:09:18.365Z,24.71
2018-06-07T15:11:45.383Z,26.65
2018-06-07T15:14:12.451Z,25.71
2018-06-07T15:16:39.570Z,25.34
2018-06-07T15:19:06.700Z,25.07
2018-06-07T15:21:33.773Z,25.72
2018-06-07T15:24:00.898Z,25.76
2018-06-07T15:26:27.927Z,26.60
2018-06-07T15:28:55.051Z,25.33
2018-06-07T15:31:22.152Z,26.94
2018-06-07T15:33:49.175Z,27.77
2018-06-07T15:36:16.515Z,25.86
2018-06-07T15:38:43.533Z,25.83
2018-06-07T15:41:10.555Z,27.73
2018-06-07T15:43:37.582Z,26.60
2018-06-07T15:46:04.898Z,27.73
2018-06-07T15:48:31.909Z,25.56
2018-06-07T15:50:59.014Z,26.99
2018-06-07T15:53:26.227Z,27.86
2018-06-07T15:55:53.337Z,26.55
2018-06-07T15:58:20.381Z,26.92
2018-06-07T16:00:47.406Z,27.85
2018-06-07T16:03:14.522Z,25.72
2018-06-07T16:05:41.598Z,26.92
2018-06-07T16:08:08.643Z,27.75
2018-06-07T16:10:35.681Z,26.46
2018-06-07T16:13:02.827Z,27.10
2018-06-07T16:15:29.846Z,26.67
2018-06-07T16:17:56.942Z,26.95
2018-06-07T16:20:24.194Z,26.56
2018-06-07T16:22:51.401Z,26.12
2018-06-07T16:25:18.495Z,26.99
2018-06-07T16:27:45.610Z,28.09
2018-06-07T16:30:12.719Z,27.93
2018-06-07T16:32:39.880Z,26.55
2018-06-07T16:35:06.954Z,27.13
2018-06-07T16:37:34.038Z,27.24
2018-06-07T16:40:01.083Z,27.54
2018-06-07T16:42:28.207Z,27.90
2018-06-07T16:44:55.423Z,26.22
2018-06-07T16:47:22.496Z,28.06
2018-06-07T16:49:49.609Z,27.68
2018-06-07T16:52:17.035Z,29.71
2018-06-07T16:54:44.077Z,28.76
2018-06-07T16:57:11.089Z,28.26
2018-06-07T16:59:38.180Z,28.47
2018-06-07T17:02:05.252Z,28.99
2018-06-07T17:04:32.282Z,27.51
2018-06-07T17:06:59.312Z,28.57
2018-06-07T17:09:26.579Z,29.29
2018-06-07T17:11:53.594Z,29.41
2018-06-07T17:14:20.614Z,29.59
2018-06-07T17:16:47.736Z,29.03
2018-06-07T17:19:14.851Z,28.56
2018-06-07T17:21:41.960Z,29.10
2018-06-07T17:24:09.266Z,29.92
2018-06-07T17:26:36.367Z,29.41
2018-06-07T17:29:03.494Z,29.01
2018-06-07T17:31:30.518Z,30.15
2018-06-07T17:33:57.663Z,30.46
2018-06-07T17:36:24.679Z,31.15
2018-06-07T17:38:51.711Z,29.79
2018-06-07T17:41:18.718Z,29.93
2018-06-07T17:43:45.741Z,31.98
2018-06-07T17:46:12.775Z,31.33
2018-06-07T17:48:39.923Z,29.88
2018-06-07T17:51:06.942Z,31.00
2018-06-07T17:53:33.973Z,30.72
2018-06-07T17:56:00.986Z,32.19
2018-06-07T17:58:28.078Z,30.36
2018-06-07T18:00:55.309Z,31.07
2018-06-07T18:03:22.410Z,31.37
2018-06-07T18:05:49.506Z,32.15
2018-06-07T18:08:16.605Z,30.73
2018-06-07T18:10:43.698Z,31.92
2018-06-07T18:13:10.758Z,31.55
2018-06-07T18:15:37.806Z,30.31
2018-06-07T18:18:04.933Z,30.98
2018-06-07T18:20:31.951Z,31.76
2018-06-07T18:22:59.038Z,31.94
2018-06-07T18:25:26.052Z,35.53
2018-06-07T18:27:53.165Z,38.51
2018-06-07T18:30:20.290Z,39.66
2018-06-07T18:32:47.404Z,40.73
2018-06-07T18:35:14.503Z,41.07
2018-06-07T18:37:41.611Z,41.92
2018-06-07T18:40:08.750Z,41.77
2018-06-07T18:42:35.900Z,41.02
2018-06-07T18:45:02.970Z,42.15
2018-06-07T18:47:30.156Z,41.39
2018-06-07T18:49:57.450Z,41.52
2018-06-07T18:52:24.460Z,41.59
2018-06-07T18:54:51.578Z,41.22
2018-06-07T18:57:18.679Z,41.65
2018-06-07T18:59:45.738Z,42.92
2018-06-07T19:02:12.858Z,42.67
2018-06-07T19:04:39.876Z,43.26
2018-06-07T19:07:11.498Z,43.08
2018-06-07T19:09:44.306Z,43.45
2018-06-07T19:12:11.412Z,43.54
2018-06-07T19:14:44.355Z,43.49
2018-06-07T19:17:11.653Z,42.91
2018-06-07T19:19:44.321Z,43.63
2018-06-07T19:22:11.389Z,41.66
2018-06-07T19:24:38.487Z,42.98
2018-06-07T19:27:11.243Z,43.08
2018-06-07T19:29:38.283Z,42.85
2018-06-07T19:32:11.214Z,43.03
2018-06-07T19:34:43.891Z,44.44
2018-06-07T19:37:11.103Z,44.02
2018-06-07T19:39:43.843Z,43.21
2018-06-07T19:42:12.945Z,43.30
2018-06-07T19:44:39.962Z,44.15
2018-06-07T19:47:07.014Z,44.25
2018-06-07T19:49:34.121Z,44.84
2018-06-07T19:52:01.155Z,44.10
2018-06-07T19:54:28.358Z,45.88
2018-06-07T19:56:55.468Z,46.17
2018-06-07T19:59:22.657Z,44.13
2018-06-07T20:01:49.865Z,43.76
2018-06-07T20:04:16.888Z,44.99
2018-06-07T20:06:43.897Z,45.87
2018-06-07T20:09:11.271Z,46.34
2018-06-07T20:11:38.486Z,45.18
2018-06-07T20:14:05.557Z,45.09
2018-06-07T20:16:32.672Z,44.85
2018-06-07T20:18:59.713Z,46.30
2018-06-07T20:21:26.897Z,45.97
2018-06-07T20:23:53.910Z,45.43
2018-06-07T20:26:21.025Z,46.47
2018-06-07T20:28:48.164Z,45.99
2018-06-07T20:31:15.271Z,46.73
2018-06-07T20:33:42.881Z,46.07
2018-06-07T20:36:09.915Z,46.46
2018-06-07T20:38:37.047Z,46.37
2018-06-07T20:41:04.150Z,46.73
2018-06-07T20:43:31.167Z,47.31
2018-06-07T20:45:58.541Z,46.84
2018-06-07T20:48:25.571Z,47.22
2018-06-07T20:50:52.672Z,46.79
2018-06-07T20:53:19.986Z,47.77
2018-06-07T20:55:46.994Z,46.17
2018-06-07T20:58:14.061Z,46.99
2018-06-07T21:00:41.081Z,47.00
2018-06-07T21:03:08.189Z,46.14
2018-06-07T21:05:35.249Z,47.26
2018-06-07T21:08:02.314Z,46.88
2018-06-07T21:10:29.504Z,46.62
2018-06-07T21:12:56.590Z,47.14
2018-06-07T21:15:23.642Z,46.78
2018-06-07T21:17:50.655Z,46.88
2018-06-07T21:20:17.687Z,47.52
2018-06-07T21:22:44.800Z,47.60
2018-06-07T21:25:12.062Z,48.46
2018-06-07T21:27:39.191Z,48.90
2018-06-07T21:30:06.246Z,48.28
2018-06-07T21:32:33.369Z,48.39
2018-06-07T21:35:00.405Z,49.06
2018-06-07T21:37:27.430Z,48.46
2018-06-07T21:39:54.469Z,48.18
2018-06-07T21:42:21.638Z,49.88
2018-06-07T21:44:48.684Z,48.96
2018-06-07T21:47:15.694Z,49.41
2018-06-07T21:49:42.718Z,49.46
2018-06-07T21:52:09.834Z,50.05
2018-06-07T21:54:36.878Z,49.69
2018-06-07T21:57:03.971Z,50.39
2018-06-07T21:59:30.974Z,52.26
2018-06-07T22:01:58.122Z,50.69
2018-06-07T22:04:25.137Z,51.07
2018-06-07T22:06:52.238Z,51.82
2018-06-07T22:09:19.257Z,51.81
2018-06-07T22:11:46.269Z,51.90
2018-06-07T22:14:13.377Z,52.11
2018-06-07T22:16:40.420Z,52.71
2018-06-07T22:19:07.512Z,52.52
2018-06-07T22:21:34.534Z,53.06
2018-06-07T22:24:01.796Z,52.90
2018-06-07T22:26:28.828Z,53.31
2018-06-07T22:28:55.832Z,53.38
2018-06-07T22:31:22.954Z,54.37
2018-06-07T22:33:49.974Z,54.22
2018-06-07T22:36:16.980Z,54.20
2018-06-07T22:38:44.078Z,54.39
2018-06-07T22:41:11.100Z,54.87
2018-06-07T22:43:38.121Z,55.01
2018-06-07T22:46:05.156Z,55.06
2018-06-07T22:48:32.250Z,55.49
2018-06-07T22:50:59.280Z,55.41
2018-06-07T22:53:26.518Z,55.97
2018-06-07T22:55:53.690Z,55.80
2018-06-07T22:58:20.806Z,56.99
2018-06-07T23:00:48.168Z,56.23
2018-06-07T23:03:15.190Z,56.53
2018-06-07T23:05:42.208Z,56.42
2018-06-07T23:08:09.223Z,56.57
2018-06-07T23:10:36.369Z,57.24
2018-06-07T23:13:03.393Z,57.13
2018-06-07T23:15:30.445Z,57.15
2018-06-07T23:17:57.461Z,57.58
2018-06-07T23:20:24.562Z,57.03
2018-06-07T23:22:51.683Z,58.30
2018-06-07T23:25:18.690Z,57.90
2018-06-07T23:27:45.793Z,58.72
2018-06-07T23:30:12.827Z,58.36
2018-06-07T23:32:40.052Z,57.68
2018-06-07T23:35:07.091Z,58.10
2018-06-07T23:37:34.127Z,58.05
2018-06-07T23:40:01.174Z,59.27
2018-06-07T23:42:28.268Z,58.73
2018-06-07T23:44:55.278Z,59.18
2018-06-07T23:47:22.436Z,59.24
2018-06-07T23:49:49.569Z,59.83
2018-06-07T23:52:16.606Z,60.14
2018-06-07T23:54:43.746Z,59.71
2018-06-07T23:57:10.775Z,59.21
2018-06-07T23:59:37.782Z,59.54
